Flight Number: EUR1023 Duration: 7:12
Departure: Gatwick Airport (EGKK) at 07:00 Distance: 510 Nm
Arrival: Innsbruck (LOWI) at 08:30 Equipment: B737

Weather Information
London / Gatwick Airport, United Kingdom (EGKK) 51-09N 000-11W 0M May 23, 2018 - 07:50 PM EDT / 2018.05.23 2350 UTC
Wind: from the NNE (020 degrees) at 8 MPH (7 KT):0
Visibility: greater than 7 mile(s):0
Sky conditions: mostly clear Weather: light rain Temperature: 55 F (13 C) Dew Point: 50 F (10 C) Relative Humidity: 81% Pressure (altimeter): 30.15 in. Hg (1021 hPa)
ob: EGKK 232350Z 02007KT 9999 -RA FEW026 13/10 Q1021 cycle: 0
Sunrise: 04:02 Sunset: 19:52 (UTC)

Innsbruck-Flughafen, Austria (LOWI) 47-16N 011-21E 593M May 23, 2018 - 07:50 PM EDT / 2018.05.23 2350 UTC
Wind: Variable at 2 MPH (2 KT):0
Visibility: greater than 7 mile(s):0
Sky conditions: mostly cloudy Temperature: 57 F (14 C) Dew Point: 53 F (12 C) Relative Humidity: 87% Pressure (altimeter): 30.09 in. Hg (1019 hPa)
ob: LOWI 232350Z AUTO VRB02KT 9999 FEW080 SCT090 BKN110 14/12 Q1019 cycle: 0
Sunrise: 03:32 Sunset: 18:50 (UTC)

TAF:2018/05/23 18:21 TAF LOWI 231715Z 2318/2418 VRB02KT 9999 FEW050 SCT100 BKN300 TX22/2414Z TN13/2404Z PROB40 TEMPO 2322/2406 27010KT SHRA FEW060TCU BKN080 BECMG 2409/2411 08007KT SCT070 FEW070TCU TEMPO 2412/2418 27015G30KT TSRA FEW050 SCT070CB BKN090

Previous Pireps for this route
Date Aircraft Flight time Fuel used Landing rate On time
2012-08-06B73701.4510500-917No
2012-08-11A3211.45120000No
2012-09-16A32101.4614000-2046No
2012-11-14A32101.459708-444Yes
2012-12-02A32101.4710383-483Yes
2013-01-03MD-8101.3712169-199Charter
2013-05-14A32101.319241-465Yes
2013-10-27A32101.4210237-287Charter
2014-01-31A3211.449440-520Yes
2014-09-12A32101.399980-478Yes
2014-09-28B7371.45110000No
2014-10-08B7371.40100000No
2014-12-21A32101.299035-50No
2015-04-21A32101.4918625-361No
2016-05-02A3211.3010286-586No
2016-05-30B73701.549386-251Yes
2017-07-11B73701.429054-101Charter
(pireps marked green are flown by you)

Route map